sensor_id;sensor_type;location;lat;lon;timestamp;temperature;humidity
15257;DHT22;7731;50.720;6.912;2022-08-19T00:01:05;19.20;1.00
15257;DHT22;7731;50.720;6.912;2022-08-19T00:03:35;19.20;1.00
15257;DHT22;7731;50.720;6.912;2022-08-19T00:06:06;19.20;1.00
15257;DHT22;7731;50.720;6.912;2022-08-19T00:08:44;19.20;1.00
15257;DHT22;7731;50.720;6.912;2022-08-19T00:11:15;19.10;1.00
15257;DHT22;7731;50.720;6.912;2022-08-19T00:13:52;19.10;1.00
15257;DHT22;7731;50.720;6.912;2022-08-19T00:16:24;19.10;1.00
15257;DHT22;7731;50.720;6.912;2022-08-19T00:18:56;19.00;7.80
15257;DHT22;7731;50.720;6.912;2022-08-19T00:21:26;19.00;15.70
15257;DHT22;7731;50.720;6.912;2022-08-19T00:23:59;19.00;13.30
15257;DHT22;7731;50.720;6.912;2022-08-19T00:26:30;18.90;17.70
15257;DHT22;7731;50.720;6.912;2022-08-19T00:29:03;18.90;23.90
15257;DHT22;7731;50.720;6.912;2022-08-19T00:31:35;18.90;16.30
15257;DHT22;7731;50.720;6.912;2022-08-19T00:34:08;18.90;20.20
15257;DHT22;7731;50.720;6.912;2022-08-19T00:36:40;18.70;36.90
15257;DHT22;7731;50.720;6.912;2022-08-19T00:39:16;18.60;61.00
15257;DHT22;7731;50.720;6.912;2022-08-19T00:41:49;18.60;67.90
15257;DHT22;7731;50.720;6.912;2022-08-19T00:44:22;18.60;68.80
15257;DHT22;7731;50.720;6.912;2022-08-19T00:46:57;18.60;81.40
15257;DHT22;7731;50.720;6.912;2022-08-19T00:49:31;18.60;73.10
15257;DHT22;7731;50.720;6.912;2022-08-19T00:52:09;18.60;65.00
15257;DHT22;7731;50.720;6.912;2022-08-19T00:54:45;18.60;91.20
15257;DHT22;7731;50.720;6.912;2022-08-19T00:57:24;18.60;74.20
15257;DHT22;7731;50.720;6.912;2022-08-19T00:59:59;18.60;89.60
15257;DHT22;7731;50.720;6.912;2022-08-19T01:02:32;18.50;95.70
15257;DHT22;7731;50.720;6.912;2022-08-19T01:05:09;18.60;99.40
15257;DHT22;7731;50.720;6.912;2022-08-19T01:07:42;18.50;98.00
15257;DHT22;7731;50.720;6.912;2022-08-19T01:10:17;18.50;99.90
15257;DHT22;7731;50.720;6.912;2022-08-19T01:12:52;18.40;99.90
15257;DHT22;7731;50.720;6.912;2022-08-19T01:15:27;18.40;99.90
15257;DHT22;7731;50.720;6.912;2022-08-19T01:18:04;18.40;99.90
15257;DHT22;7731;50.720;6.912;2022-08-19T01:20:37;18.40;99.90
15257;DHT22;7731;50.720;6.912;2022-08-19T01:23:11;18.40;99.90
15257;DHT22;7731;50.720;6.912;2022-08-19T01:25:46;18.40;99.90
15257;DHT22;7731;50.720;6.912;2022-08-19T01:28:27;18.40;99.90
15257;DHT22;7731;50.720;6.912;2022-08-19T01:31:06;18.40;99.90
15257;DHT22;7731;50.720;6.912;2022-08-19T01:33:55;18.40;99.90
15257;DHT22;7731;50.720;6.912;2022-08-19T01:36:30;18.30;99.90
15257;DHT22;7731;50.720;6.912;2022-08-19T01:39:07;18.20;99.90
15257;DHT22;7731;50.720;6.912;2022-08-19T01:41:42;18.20;99.90
15257;DHT22;7731;50.720;6.912;2022-08-19T01:44:12;18.20;99.90
15257;DHT22;7731;50.720;6.912;2022-08-19T01:46:47;18.30;99.90
15257;DHT22;7731;50.720;6.912;2022-08-19T01:49:19;18.20;99.90
15257;DHT22;7731;50.720;6.912;2022-08-19T01:51:52;18.30;99.90
15257;DHT22;7731;50.720;6.912;2022-08-19T01:54:25;18.20;99.90
15257;DHT22;7731;50.720;6.912;2022-08-19T01:56:59;18.20;99.90
15257;DHT22;7731;50.720;6.912;2022-08-19T01:59:34;18.20;99.90
15257;DHT22;7731;50.720;6.912;2022-08-19T02:02:06;18.20;99.90
15257;DHT22;7731;50.720;6.912;2022-08-19T02:04:37;18.10;99.90
15257;DHT22;7731;50.720;6.912;2022-08-19T02:07:08;18.00;99.90
15257;DHT22;7731;50.720;6.912;2022-08-19T02:09:41;18.00;99.90
15257;DHT22;7731;50.720;6.912;2022-08-19T02:12:11;17.90;99.90
15257;DHT22;7731;50.720;6.912;2022-08-19T02:14:43;17.90;99.90
15257;DHT22;7731;50.720;6.912;2022-08-19T02:17:13;17.90;99.90
15257;DHT22;7731;50.720;6.912;2022-08-19T02:19:44;17.90;99.90
15257;DHT22;7731;50.720;6.912;2022-08-19T02:22:16;17.80;99.90
15257;DHT22;7731;50.720;6.912;2022-08-19T02:24:49;17.90;99.90
15257;DHT22;7731;50.720;6.912;2022-08-19T02:27:19;17.90;99.90
15257;DHT22;7731;50.720;6.912;2022-08-19T02:29:50;18.00;99.90
15257;DHT22;7731;50.720;6.912;2022-08-19T02:32:23;18.00;99.90
15257;DHT22;7731;50.720;6.912;2022-08-19T02:34:54;18.00;99.90
15257;DHT22;7731;50.720;6.912;2022-08-19T02:37:24;18.00;99.90
15257;DHT22;7731;50.720;6.912;2022-08-19T02:40:10;18.00;99.90
15257;DHT22;7731;50.720;6.912;2022-08-19T02:42:41;18.00;99.90
15257;DHT22;7731;50.720;6.912;2022-08-19T02:45:14;18.00;99.90
15257;DHT22;7731;50.720;6.912;2022-08-19T02:47:45;18.00;99.90
15257;DHT22;7731;50.720;6.912;2022-08-19T02:50:15;17.90;99.90
15257;DHT22;7731;50.720;6.912;2022-08-19T02:52:45;17.90;99.90
15257;DHT22;7731;50.720;6.912;2022-08-19T02:55:18;18.00;99.90
15257;DHT22;7731;50.720;6.912;2022-08-19T02:57:49;17.90;99.90
15257;DHT22;7731;50.720;6.912;2022-08-19T03:00:20;17.80;99.90
15257;DHT22;7731;50.720;6.912;2022-08-19T03:02:50;17.70;99.90
15257;DHT22;7731;50.720;6.912;2022-08-19T03:05:22;17.60;99.90
15257;DHT22;7731;50.720;6.912;2022-08-19T03:08:14;17.50;99.90
15257;DHT22;7731;50.720;6.912;2022-08-19T03:10:49;17.50;99.90
15257;DHT22;7731;50.720;6.912;2022-08-19T03:13:20;17.50;99.90
15257;DHT22;7731;50.720;6.912;2022-08-19T03:15:51;17.50;99.90
15257;DHT22;7731;50.720;6.912;2022-08-19T03:18:21;17.60;99.90
15257;DHT22;7731;50.720;6.912;2022-08-19T03:20:53;17.60;99.90
15257;DHT22;7731;50.720;6.912;2022-08-19T03:23:24;17.70;99.90
15257;DHT22;7731;50.720;6.912;2022-08-19T03:25:57;17.70;99.90
15257;DHT22;7731;50.720;6.912;2022-08-19T03:28:43;17.70;99.90
15257;DHT22;7731;50.720;6.912;2022-08-19T03:31:26;17.70;99.90
15257;DHT22;7731;50.720;6.912;2022-08-19T03:34:21;17.70;99.90
15257;DHT22;7731;50.720;6.912;2022-08-19T03:36:56;17.80;99.90
15257;DHT22;7731;50.720;6.912;2022-08-19T03:39:30;17.70;99.90
15257;DHT22;7731;50.720;6.912;2022-08-19T03:42:03;17.70;99.90
15257;DHT22;7731;50.720;6.912;2022-08-19T03:44:58;17.70;99.90
15257;DHT22;7731;50.720;6.912;2022-08-19T03:47:28;17.70;99.90
15257;DHT22;7731;50.720;6.912;2022-08-19T03:50:02;17.70;99.90
15257;DHT22;7731;50.720;6.912;2022-08-19T03:52:33;17.70;99.90
15257;DHT22;7731;50.720;6.912;2022-08-19T03:55:07;17.70;99.90
15257;DHT22;7731;50.720;6.912;2022-08-19T03:57:40;17.70;99.90
15257;DHT22;7731;50.720;6.912;2022-08-19T04:00:14;17.70;99.90
15257;DHT22;7731;50.720;6.912;2022-08-19T04:02:45;17.60;99.90
15257;DHT22;7731;50.720;6.912;2022-08-19T04:05:26;17.60;99.90
15257;DHT22;7731;50.720;6.912;2022-08-19T04:07:58;17.50;99.90
15257;DHT22;7731;50.720;6.912;2022-08-19T04:10:28;17.40;99.90
15257;DHT22;7731;50.720;6.912;2022-08-19T04:13:01;17.40;99.90
15257;DHT22;7731;50.720;6.912;2022-08-19T04:15:32;17.40;99.90
15257;DHT22;7731;50.720;6.912;2022-08-19T04:18:06;17.40;99.90
15257;DHT22;7731;50.720;6.912;2022-08-19T04:20:45;17.30;99.90
15257;DHT22;7731;50.720;6.912;2022-08-19T04:23:16;17.20;99.90
15257;DHT22;7731;50.720;6.912;2022-08-19T04:25:47;17.20;99.90
15257;DHT22;7731;50.720;6.912;2022-08-19T04:28:20;17.20;99.90
15257;DHT22;7731;50.720;6.912;2022-08-19T04:30:53;17.20;99.90
15257;DHT22;7731;50.720;6.912;2022-08-19T04:33:25;17.20;99.90
15257;DHT22;7731;50.720;6.912;2022-08-19T04:35:55;17.20;99.90
15257;DHT22;7731;50.720;6.912;2022-08-19T04:38:27;17.20;99.90
15257;DHT22;7731;50.720;6.912;2022-08-19T04:40:57;17.10;99.90
15257;DHT22;7731;50.720;6.912;2022-08-19T04:43:44;17.10;99.90
15257;DHT22;7731;50.720;6.912;2022-08-19T04:46:17;17.10;99.90
15257;DHT22;7731;50.720;6.912;2022-08-19T04:49:08;17.10;99.90
15257;DHT22;7731;50.720;6.912;2022-08-19T04:51:41;17.10;99.90
15257;DHT22;7731;50.720;6.912;2022-08-19T04:54:14;17.10;99.90
15257;DHT22;7731;50.720;6.912;2022-08-19T04:57:04;17.10;99.90
15257;DHT22;7731;50.720;6.912;2022-08-19T04:59:40;17.20;99.90
15257;DHT22;7731;50.720;6.912;2022-08-19T05:02:10;17.20;99.90
15257;DHT22;7731;50.720;6.912;2022-08-19T05:04:40;17.30;99.90
15257;DHT22;7731;50.720;6.912;2022-08-19T05:07:11;17.30;99.90
15257;DHT22;7731;50.720;6.912;2022-08-19T05:09:46;17.30;99.90
15257;DHT22;7731;50.720;6.912;2022-08-19T05:12:25;17.30;99.90
15257;DHT22;7731;50.720;6.912;2022-08-19T05:14:59;17.50;99.90
15257;DHT22;7731;50.720;6.912;2022-08-19T05:17:31;17.50;99.90
15257;DHT22;7731;50.720;6.912;2022-08-19T05:20:06;17.60;99.90
15257;DHT22;7731;50.720;6.912;2022-08-19T05:22:50;17.60;99.90
15257;DHT22;7731;50.720;6.912;2022-08-19T05:25:21;17.70;99.90
15257;DHT22;7731;50.720;6.912;2022-08-19T05:27:52;17.70;99.90
15257;DHT22;7731;50.720;6.912;2022-08-19T05:30:25;17.80;99.90
15257;DHT22;7731;50.720;6.912;2022-08-19T05:33:12;17.90;99.90
15257;DHT22;7731;50.720;6.912;2022-08-19T05:35:43;18.00;99.90
15257;DHT22;7731;50.720;6.912;2022-08-19T05:38:16;18.10;99.90
15257;DHT22;7731;50.720;6.912;2022-08-19T05:40:49;18.20;99.90
15257;DHT22;7731;50.720;6.912;2022-08-19T05:43:19;18.40;99.90
15257;DHT22;7731;50.720;6.912;2022-08-19T05:45:52;18.40;99.90
15257;DHT22;7731;50.720;6.912;2022-08-19T05:48:23;18.50;99.90
15257;DHT22;7731;50.720;6.912;2022-08-19T05:50:53;18.60;99.90
15257;DHT22;7731;50.720;6.912;2022-08-19T05:53:23;18.60;99.90
15257;DHT22;7731;50.720;6.912;2022-08-19T05:55:54;18.60;99.90
15257;DHT22;7731;50.720;6.912;2022-08-19T05:58:24;18.60;99.90
15257;DHT22;7731;50.720;6.912;2022-08-19T06:00:57;18.60;99.90
15257;DHT22;7731;50.720;6.912;2022-08-19T06:03:32;18.60;99.90
15257;DHT22;7731;50.720;6.912;2022-08-19T06:06:05;18.70;99.90
15257;DHT22;7731;50.720;6.912;2022-08-19T06:08:38;18.70;99.90
15257;DHT22;7731;50.720;6.912;2022-08-19T06:11:16;18.80;99.90
15257;DHT22;7731;50.720;6.912;2022-08-19T06:13:50;18.90;99.90
15257;DHT22;7731;50.720;6.912;2022-08-19T06:16:29;19.00;99.90
15257;DHT22;7731;50.720;6.912;2022-08-19T06:19:04;18.90;99.90
15257;DHT22;7731;50.720;6.912;2022-08-19T06:21:38;19.00;99.90
15257;DHT22;7731;50.720;6.912;2022-08-19T06:24:12;19.10;99.90
15257;DHT22;7731;50.720;6.912;2022-08-19T06:26:46;19.20;99.90
15257;DHT22;7731;50.720;6.912;2022-08-19T06:29:25;19.60;99.90
15257;DHT22;7731;50.720;6.912;2022-08-19T06:32:03;20.10;93.80
15257;DHT22;7731;50.720;6.912;2022-08-19T06:34:34;20.20;94.00
15257;DHT22;7731;50.720;6.912;2022-08-19T06:37:07;20.30;68.20
15257;DHT22;7731;50.720;6.912;2022-08-19T06:39:40;20.60;49.80
15257;DHT22;7731;50.720;6.912;2022-08-19T06:42:12;21.40;1.00
15257;DHT22;7731;50.720;6.912;2022-08-19T06:44:45;22.00;1.00
15257;DHT22;7731;50.720;6.912;2022-08-19T06:47:22;22.90;1.00
15257;DHT22;7731;50.720;6.912;2022-08-19T06:49:55;24.00;99.90
15257;DHT22;7731;50.720;6.912;2022-08-19T06:52:29;24.50;99.90
15257;DHT22;7731;50.720;6.912;2022-08-19T06:55:04;24.90;75.90
15257;DHT22;7731;50.720;6.912;2022-08-19T06:57:36;24.80;99.90
15257;DHT22;7731;50.720;6.912;2022-08-19T07:00:08;24.70;1.00
15257;DHT22;7731;50.720;6.912;2022-08-19T07:02:44;24.50;1.00
15257;DHT22;7731;50.720;6.912;2022-08-19T07:05:23;24.70;1.00
15257;DHT22;7731;50.720;6.912;2022-08-19T07:07:54;25.00;1.00
15257;DHT22;7731;50.720;6.912;2022-08-19T07:10:30;25.40;99.90
15257;DHT22;7731;50.720;6.912;2022-08-19T07:13:02;26.00;1.00
15257;DHT22;7731;50.720;6.912;2022-08-19T07:15:32;25.70;99.90
15257;DHT22;7731;50.720;6.912;2022-08-19T07:18:08;25.90;99.90
15257;DHT22;7731;50.720;6.912;2022-08-19T07:20:38;26.00;99.90
15257;DHT22;7731;50.720;6.912;2022-08-19T07:23:13;26.40;99.90
15257;DHT22;7731;50.720;6.912;2022-08-19T07:25:44;27.50;62.60
15257;DHT22;7731;50.720;6.912;2022-08-19T07:28:19;27.50;99.90
15257;DHT22;7731;50.720;6.912;2022-08-19T07:30:53;27.90;1.00
15257;DHT22;7731;50.720;6.912;2022-08-19T07:33:26;28.60;99.90
15257;DHT22;7731;50.720;6.912;2022-08-19T07:35:59;28.40;99.90
15257;DHT22;7731;50.720;6.912;2022-08-19T07:38:29;28.60;99.90
15257;DHT22;7731;50.720;6.912;2022-08-19T07:41:00;29.70;1.00
15257;DHT22;7731;50.720;6.912;2022-08-19T07:43:30;29.80;1.00
15257;DHT22;7731;50.720;6.912;2022-08-19T07:46:01;29.50;1.00
15257;DHT22;7731;50.720;6.912;2022-08-19T07:48:57;29.00;1.00
15257;DHT22;7731;50.720;6.912;2022-08-19T07:51:28;28.80;1.00
15257;DHT22;7731;50.720;6.912;2022-08-19T07:54:03;28.60;99.90
15257;DHT22;7731;50.720;6.912;2022-08-19T07:56:33;28.40;99.90
15257;DHT22;7731;50.720;6.912;2022-08-19T07:59:04;28.20;99.90
15257;DHT22;7731;50.720;6.912;2022-08-19T08:01:37;28.00;99.90
15257;DHT22;7731;50.720;6.912;2022-08-19T08:04:13;27.80;1.00
15257;DHT22;7731;50.720;6.912;2022-08-19T08:06:56;27.40;99.90
15257;DHT22;7731;50.720;6.912;2022-08-19T08:09:41;27.20;99.90
15257;DHT22;7731;50.720;6.912;2022-08-19T08:12:18;27.80;1.00
15257;DHT22;7731;50.720;6.912;2022-08-19T08:15:05;27.30;99.90
15257;DHT22;7731;50.720;6.912;2022-08-19T08:17:39;27.40;99.90
15257;DHT22;7731;50.720;6.912;2022-08-19T08:20:20;27.60;99.90
15257;DHT22;7731;50.720;6.912;2022-08-19T08:22:50;28.30;99.90
15257;DHT22;7731;50.720;6.912;2022-08-19T08:25:34;28.90;29.10
15257;DHT22;7731;50.720;6.912;2022-08-19T08:28:06;28.80;70.70
15257;DHT22;7731;50.720;6.912;2022-08-19T08:30:44;28.80;99.90
15257;DHT22;7731;50.720;6.912;2022-08-19T08:33:18;29.20;1.00
15257;DHT22;7731;50.720;6.912;2022-08-19T08:36:06;28.80;43.70
15257;DHT22;7731;50.720;6.912;2022-08-19T08:38:38;27.70;1.00
15257;DHT22;7731;50.720;6.912;2022-08-19T08:41:18;28.70;99.90
15257;DHT22;7731;50.720;6.912;2022-08-19T08:43:58;29.20;1.00
15257;DHT22;7731;50.720;6.912;2022-08-19T08:46:33;28.90;1.00
15257;DHT22;7731;50.720;6.912;2022-08-19T08:49:20;30.50;1.00
15257;DHT22;7731;50.720;6.912;2022-08-19T08:52:03;30.70;99.90
15257;DHT22;7731;50.720;6.912;2022-08-19T08:54:39;30.10;1.00
15257;DHT22;7731;50.720;6.912;2022-08-19T08:57:27;30.50;99.90
15257;DHT22;7731;50.720;6.912;2022-08-19T09:00:09;30.10;1.00
15257;DHT22;7731;50.720;6.912;2022-08-19T09:02:47;29.90;1.00
15257;DHT22;7731;50.720;6.912;2022-08-19T09:05:18;29.80;1.00
15257;DHT22;7731;50.720;6.912;2022-08-19T09:08:07;29.40;1.00
15257;DHT22;7731;50.720;6.912;2022-08-19T09:10:50;30.00;1.00
15257;DHT22;7731;50.720;6.912;2022-08-19T09:13:28;30.90;99.90
15257;DHT22;7731;50.720;6.912;2022-08-19T09:16:11;30.80;99.90
15257;DHT22;7731;50.720;6.912;2022-08-19T09:18:48;30.50;99.90
15257;DHT22;7731;50.720;6.912;2022-08-19T09:21:23;29.80;99.90
15257;DHT22;7731;50.720;6.912;2022-08-19T09:24:03;29.50;1.00
15257;DHT22;7731;50.720;6.912;2022-08-19T09:26:34;29.10;1.00
15257;DHT22;7731;50.720;6.912;2022-08-19T09:29:18;29.40;1.00
15257;DHT22;7731;50.720;6.912;2022-08-19T09:31:49;29.80;99.90
15257;DHT22;7731;50.720;6.912;2022-08-19T09:34:20;30.10;99.90
15257;DHT22;7731;50.720;6.912;2022-08-19T09:36:52;29.90;99.90
15257;DHT22;7731;50.720;6.912;2022-08-19T09:39:28;30.30;99.90
15257;DHT22;7731;50.720;6.912;2022-08-19T09:42:02;31.60;99.90
15257;DHT22;7731;50.720;6.912;2022-08-19T09:44:56;31.40;99.90
15257;DHT22;7731;50.720;6.912;2022-08-19T09:47:27;31.80;99.90
15257;DHT22;7731;50.720;6.912;2022-08-19T09:49:59;32.50;99.90
15257;DHT22;7731;50.720;6.912;2022-08-19T09:52:30;32.60;99.90
15257;DHT22;7731;50.720;6.912;2022-08-19T09:55:09;33.40;99.90
15257;DHT22;7731;50.720;6.912;2022-08-19T09:57:40;32.50;99.90
15257;DHT22;7731;50.720;6.912;2022-08-19T10:00:11;32.40;99.90
15257;DHT22;7731;50.720;6.912;2022-08-19T10:02:42;32.40;99.90
15257;DHT22;7731;50.720;6.912;2022-08-19T10:05:12;32.90;99.90
15257;DHT22;7731;50.720;6.912;2022-08-19T10:07:57;31.50;99.90
15257;DHT22;7731;50.720;6.912;2022-08-19T10:10:35;30.20;99.90
15257;DHT22;7731;50.720;6.912;2022-08-19T10:13:09;29.50;99.90
15257;DHT22;7731;50.720;6.912;2022-08-19T10:15:39;29.90;99.90
15257;DHT22;7731;50.720;6.912;2022-08-19T10:18:14;30.00;99.90
15257;DHT22;7731;50.720;6.912;2022-08-19T10:20:46;30.40;99.90
15257;DHT22;7731;50.720;6.912;2022-08-19T10:23:19;30.40;99.90
15257;DHT22;7731;50.720;6.912;2022-08-19T10:25:53;30.40;99.90
15257;DHT22;7731;50.720;6.912;2022-08-19T10:28:24;30.40;99.90
15257;DHT22;7731;50.720;6.912;2022-08-19T10:30:56;30.30;99.90
15257;DHT22;7731;50.720;6.912;2022-08-19T10:33:26;30.20;99.90
15257;DHT22;7731;50.720;6.912;2022-08-19T10:36:20;30.00;99.90
15257;DHT22;7731;50.720;6.912;2022-08-19T10:38:54;29.60;99.90
15257;DHT22;7731;50.720;6.912;2022-08-19T10:41:33;30.60;99.90
15257;DHT22;7731;50.720;6.912;2022-08-19T10:44:08;31.40;99.90
15257;DHT22;7731;50.720;6.912;2022-08-19T10:46:44;31.40;99.90
15257;DHT22;7731;50.720;6.912;2022-08-19T10:49:16;30.10;99.90
15257;DHT22;7731;50.720;6.912;2022-08-19T10:51:46;29.60;99.90
15257;DHT22;7731;50.720;6.912;2022-08-19T10:54:29;29.90;99.90
15257;DHT22;7731;50.720;6.912;2022-08-19T10:57:14;29.50;99.90
15257;DHT22;7731;50.720;6.912;2022-08-19T10:59:45;28.90;99.90
15257;DHT22;7731;50.720;6.912;2022-08-19T11:02:15;28.70;1.00
15257;DHT22;7731;50.720;6.912;2022-08-19T11:04:45;28.60;1.00
15257;DHT22;7731;50.720;6.912;2022-08-19T11:07:17;28.50;1.00
15257;DHT22;7731;50.720;6.912;2022-08-19T11:09:48;28.80;1.00
15257;DHT22;7731;50.720;6.912;2022-08-19T11:12:20;29.00;1.00
15257;DHT22;7731;50.720;6.912;2022-08-19T11:14:51;29.40;99.90
15257;DHT22;7731;50.720;6.912;2022-08-19T11:17:21;30.30;99.90
15257;DHT22;7731;50.720;6.912;2022-08-19T11:19:51;30.70;99.90
15257;DHT22;7731;50.720;6.912;2022-08-19T11:22:22;31.40;99.90
15257;DHT22;7731;50.720;6.912;2022-08-19T11:25:03;30.70;99.90
15257;DHT22;7731;50.720;6.912;2022-08-19T11:27:41;30.50;99.90
15257;DHT22;7731;50.720;6.912;2022-08-19T11:30:13;29.50;99.90
15257;DHT22;7731;50.720;6.912;2022-08-19T11:32:43;28.60;1.00
15257;DHT22;7731;50.720;6.912;2022-08-19T11:35:16;28.50;1.00
15257;DHT22;7731;50.720;6.912;2022-08-19T11:37:47;28.50;1.00
15257;DHT22;7731;50.720;6.912;2022-08-19T11:40:17;28.40;1.00
15257;DHT22;7731;50.720;6.912;2022-08-19T11:42:51;28.30;1.00
15257;DHT22;7731;50.720;6.912;2022-08-19T11:45:27;28.50;1.00
15257;DHT22;7731;50.720;6.912;2022-08-19T11:47:58;28.80;1.00
15257;DHT22;7731;50.720;6.912;2022-08-19T11:50:29;28.50;1.00
15257;DHT22;7731;50.720;6.912;2022-08-19T11:53:01;28.70;1.00
15257;DHT22;7731;50.720;6.912;2022-08-19T11:55:37;28.30;1.00
15257;DHT22;7731;50.720;6.912;2022-08-19T11:58:14;28.60;1.00
15257;DHT22;7731;50.720;6.912;2022-08-19T12:00:46;28.60;1.00
15257;DHT22;7731;50.720;6.912;2022-08-19T12:03:18;28.50;1.00
15257;DHT22;7731;50.720;6.912;2022-08-19T12:05:49;28.60;1.00
15257;DHT22;7731;50.720;6.912;2022-08-19T12:08:19;28.50;1.00
15257;DHT22;7731;50.720;6.912;2022-08-19T12:10:50;28.50;1.00
15257;DHT22;7731;50.720;6.912;2022-08-19T12:13:23;28.60;1.00
15257;DHT22;7731;50.720;6.912;2022-08-19T12:15:53;28.40;1.00
15257;DHT22;7731;50.720;6.912;2022-08-19T12:18:23;28.70;1.00
15257;DHT22;7731;50.720;6.912;2022-08-19T12:20:54;28.70;1.00
15257;DHT22;7731;50.720;6.912;2022-08-19T12:23:25;28.50;1.00
15257;DHT22;7731;50.720;6.912;2022-08-19T12:25:56;28.30;1.00
15257;DHT22;7731;50.720;6.912;2022-08-19T12:28:30;28.40;1.00
15257;DHT22;7731;50.720;6.912;2022-08-19T12:31:00;28.40;1.00
15257;DHT22;7731;50.720;6.912;2022-08-19T12:33:31;28.60;1.00
15257;DHT22;7731;50.720;6.912;2022-08-19T12:36:05;28.90;1.00
15257;DHT22;7731;50.720;6.912;2022-08-19T12:38:39;29.30;99.90
15257;DHT22;7731;50.720;6.912;2022-08-19T12:41:13;28.90;99.90
15257;DHT22;7731;50.720;6.912;2022-08-19T12:43:49;28.70;99.90
15257;DHT22;7731;50.720;6.912;2022-08-19T12:46:20;29.00;99.90
15257;DHT22;7731;50.720;6.912;2022-08-19T12:48:52;29.00;99.90
15257;DHT22;7731;50.720;6.912;2022-08-19T12:51:23;29.40;99.90
15257;DHT22;7731;50.720;6.912;2022-08-19T12:53:54;29.40;99.90
15257;DHT22;7731;50.720;6.912;2022-08-19T12:56:24;29.10;99.90
15257;DHT22;7731;50.720;6.912;2022-08-19T12:58:57;28.80;99.90
15257;DHT22;7731;50.720;6.912;2022-08-19T13:01:30;28.70;99.90
15257;DHT22;7731;50.720;6.912;2022-08-19T13:04:00;28.90;99.90
15257;DHT22;7731;50.720;6.912;2022-08-19T13:06:30;28.80;99.90
15257;DHT22;7731;50.720;6.912;2022-08-19T13:09:01;28.70;99.90
15257;DHT22;7731;50.720;6.912;2022-08-19T13:11:31;28.70;99.90
15257;DHT22;7731;50.720;6.912;2022-08-19T13:14:05;28.90;99.90
15257;DHT22;7731;50.720;6.912;2022-08-19T13:16:36;29.00;99.90
15257;DHT22;7731;50.720;6.912;2022-08-19T13:19:07;28.90;99.90
15257;DHT22;7731;50.720;6.912;2022-08-19T13:21:38;28.90;99.90
15257;DHT22;7731;50.720;6.912;2022-08-19T13:24:09;29.00;99.90
15257;DHT22;7731;50.720;6.912;2022-08-19T13:26:39;29.30;99.90
15257;DHT22;7731;50.720;6.912;2022-08-19T13:29:12;29.30;99.90
15257;DHT22;7731;50.720;6.912;2022-08-19T13:31:54;29.10;99.90
15257;DHT22;7731;50.720;6.912;2022-08-19T13:34:44;28.90;99.90
15257;DHT22;7731;50.720;6.912;2022-08-19T13:37:15;28.90;99.90
15257;DHT22;7731;50.720;6.912;2022-08-19T13:40:08;28.70;99.90
15257;DHT22;7731;50.720;6.912;2022-08-19T13:42:46;29.00;99.90
15257;DHT22;7731;50.720;6.912;2022-08-19T13:45:22;29.30;99.90
15257;DHT22;7731;50.720;6.912;2022-08-19T13:47:55;29.20;99.90
15257;DHT22;7731;50.720;6.912;2022-08-19T13:50:29;29.20;99.90
15257;DHT22;7731;50.720;6.912;2022-08-19T13:53:01;29.40;99.90
15257;DHT22;7731;50.720;6.912;2022-08-19T13:55:32;29.50;99.90
15257;DHT22;7731;50.720;6.912;2022-08-19T13:58:03;28.80;99.90
15257;DHT22;7731;50.720;6.912;2022-08-19T14:00:38;28.50;99.90
15257;DHT22;7731;50.720;6.912;2022-08-19T14:03:11;28.50;99.90
15257;DHT22;7731;50.720;6.912;2022-08-19T14:05:41;28.70;99.90
15257;DHT22;7731;50.720;6.912;2022-08-19T14:08:12;28.60;99.90
15257;DHT22;7731;50.720;6.912;2022-08-19T14:10:43;28.80;99.90
15257;DHT22;7731;50.720;6.912;2022-08-19T14:13:17;29.10;99.90
15257;DHT22;7731;50.720;6.912;2022-08-19T14:15:51;29.10;99.90
15257;DHT22;7731;50.720;6.912;2022-08-19T14:18:21;29.10;99.90
15257;DHT22;7731;50.720;6.912;2022-08-19T14:20:55;29.10;99.90
15257;DHT22;7731;50.720;6.912;2022-08-19T14:23:25;28.70;99.90
15257;DHT22;7731;50.720;6.912;2022-08-19T14:26:03;28.20;99.90
15257;DHT22;7731;50.720;6.912;2022-08-19T14:28:34;28.10;99.90
15257;DHT22;7731;50.720;6.912;2022-08-19T14:31:17;28.10;99.90
15257;DHT22;7731;50.720;6.912;2022-08-19T14:33:56;28.00;99.90
15257;DHT22;7731;50.720;6.912;2022-08-19T14:36:26;28.30;99.90
15257;DHT22;7731;50.720;6.912;2022-08-19T14:39:03;28.50;99.90
15257;DHT22;7731;50.720;6.912;2022-08-19T14:44:05;28.20;99.90
15257;DHT22;7731;50.720;6.912;2022-08-19T14:46:41;28.20;99.90
15257;DHT22;7731;50.720;6.912;2022-08-19T14:49:15;28.20;99.90
15257;DHT22;7731;50.720;6.912;2022-08-19T14:51:46;28.10;99.90
15257;DHT22;7731;50.720;6.912;2022-08-19T14:54:18;28.20;99.90
15257;DHT22;7731;50.720;6.912;2022-08-19T14:56:51;28.40;99.90
15257;DHT22;7731;50.720;6.912;2022-08-19T14:59:21;28.30;99.90
15257;DHT22;7731;50.720;6.912;2022-08-19T15:01:54;28.30;99.90
15257;DHT22;7731;50.720;6.912;2022-08-19T15:04:48;28.10;99.90
15257;DHT22;7731;50.720;6.912;2022-08-19T15:07:25;28.20;99.90
15257;DHT22;7731;50.720;6.912;2022-08-19T15:09:56;28.10;99.90
15257;DHT22;7731;50.720;6.912;2022-08-19T15:12:27;28.10;99.90
15257;DHT22;7731;50.720;6.912;2022-08-19T15:14:58;28.20;99.90
15257;DHT22;7731;50.720;6.912;2022-08-19T15:17:33;28.30;99.90
15257;DHT22;7731;50.720;6.912;2022-08-19T15:20:18;28.20;99.90
15257;DHT22;7731;50.720;6.912;2022-08-19T15:22:50;28.10;99.90
15257;DHT22;7731;50.720;6.912;2022-08-19T15:25:20;27.80;99.90
15257;DHT22;7731;50.720;6.912;2022-08-19T15:27:50;27.80;1.00
15257;DHT22;7731;50.720;6.912;2022-08-19T15:30:24;27.90;1.00
15257;DHT22;7731;50.720;6.912;2022-08-19T15:32:59;27.90;1.00
15257;DHT22;7731;50.720;6.912;2022-08-19T15:35:29;27.90;1.00
15257;DHT22;7731;50.720;6.912;2022-08-19T15:37:59;27.90;1.00
15257;DHT22;7731;50.720;6.912;2022-08-19T15:40:30;27.70;1.00
15257;DHT22;7731;50.720;6.912;2022-08-19T15:43:00;27.60;1.00
15257;DHT22;7731;50.720;6.912;2022-08-19T15:45:30;27.40;1.00
15257;DHT22;7731;50.720;6.912;2022-08-19T15:48:04;27.40;1.00
15257;DHT22;7731;50.720;6.912;2022-08-19T15:50:34;27.60;1.00
15257;DHT22;7731;50.720;6.912;2022-08-19T15:53:08;27.80;1.00
15257;DHT22;7731;50.720;6.912;2022-08-19T15:55:42;28.00;1.00
15257;DHT22;7731;50.720;6.912;2022-08-19T15:58:15;28.60;99.90
15257;DHT22;7731;50.720;6.912;2022-08-19T16:00:59;28.70;99.90
15257;DHT22;7731;50.720;6.912;2022-08-19T16:03:50;28.70;99.90
15257;DHT22;7731;50.720;6.912;2022-08-19T16:06:43;28.60;99.90
15257;DHT22;7731;50.720;6.912;2022-08-19T16:09:15;28.30;1.00
15257;DHT22;7731;50.720;6.912;2022-08-19T16:11:54;28.10;1.00
15257;DHT22;7731;50.720;6.912;2022-08-19T16:14:29;27.80;1.00
15257;DHT22;7731;50.720;6.912;2022-08-19T16:17:01;27.50;1.00
15257;DHT22;7731;50.720;6.912;2022-08-19T16:19:34;27.20;1.00
15257;DHT22;7731;50.720;6.912;2022-08-19T16:22:04;27.20;1.00
15257;DHT22;7731;50.720;6.912;2022-08-19T16:24:36;27.20;1.00
15257;DHT22;7731;50.720;6.912;2022-08-19T16:27:06;27.20;1.00
15257;DHT22;7731;50.720;6.912;2022-08-19T16:29:37;27.20;1.00
15257;DHT22;7731;50.720;6.912;2022-08-19T16:32:10;27.40;1.00
15257;DHT22;7731;50.720;6.912;2022-08-19T16:34:46;27.20;1.00
15257;DHT22;7731;50.720;6.912;2022-08-19T16:37:17;26.90;1.00